Donaldson, AR (71941)

3:32 AM CST on December 03, 2016 (GMT -0600)
Florence Mem AP, Arkadelphia, | | Change Station

Elev 184 ft 34.10 °N, 93.07 °W | Updated 36 minutes ago

Overcast
Overcast
50 °F
Feels Like 50 °F
N
4
Wind Variable Wind from NNE

Today
High -- | Low -- °F
--% Chance of Precip.
Yesterday
High -- | Low -- °F
Precip. -- in
Pressure 30.26 in
Visibility 10.0 miles
Clouds Few 7500 ft
Overcast 9500 ft
Dew Point 39 °F
Humidity 66%
Rainfall 0.00 in
Snow Depth Not available.
7:01 AM 5:01 PM
Waxing Crescent, 13% visible
METAR KADF 030856Z AUTO 03003KT 10SM FEW075 OVC095 10/04 A3024 RMK AO2 SLP246 60000 T01000039 56003
Pressure 30.26 in
Visibility 10.0 miles
Clouds Few 7500 ft
Overcast 9500 ft
Dew Point 39 °F
Humidity 66%
Rainfall 0.00 in
Snow Depth Not available.
7:01 AM 5:01 PM
Waxing Crescent, 13% visible
METAR KADF 030856Z AUTO 03003KT 10SM FEW075 OVC095 10/04 A3024 RMK AO2 SLP246 60000 T01000039 56003

10-Day Weather Forecast

Almanac

Astronomy

Dec. 03, 2016 Rise Set
Actual Time
Civil Twilight
Nautical Twilight
Astronomical Twilight
Moon
Length of Visible Light
Length of Day
Tomorrow will be .
, % of the Moon is Illuminated

Today's Extremes

State Highs State Lows

Community

WunderPhotos

Upload Photos

1,955,434 photos uploaded!

WunderBlog® & News

Nearby

Air Quality

  Air Quality AQ Index Pollutant
Not available.

Snow Depth

Station Depth Elevation

Earthquake Activity

City Distance Mag. Time & Date
Minimum magnitude displayed is 2.5.

Coastal Water Temperatures

Place Temperature

Stations

Nearby Weather Stations

Station Location Temp. Windchill Dew Point Humidity Wind Precip. Elev Updated Type
                   

Watches & Warnings

There are currently no watches in effect.